KGLE/GLE METAR and TAF weather

Enter ICAO airport designator
Station Type Date Time Source
KGLE METAR 2021/07/28 18:35 UTC NOAA

KGLE 281835Z AUTO 17008KT 10SM SCT048 SCT055 34/22 A3007 RMK AO2 T03390217 PWINO


Station Type Date Time Source
KGLE Decoded METAR 2021/07/28 18:35 UTC NOAA

Gainesville, Gainesville Municipal Airport, TX, United States (KGLE) 33-39-05N 097-11-49W
Jul 28, 2021 - 02:35 PM EDT / 2021.07.28 1835 UTC
Wind: from the S (170 degrees) at 9 MPH (8 KT):0
Visibility: 10 mile(s):0
Sky conditions: partly cloudy
Temperature: 93.0 F (33.9 C)
Heat index: 100.0 F (37.8 C):1
Dew Point: 71.1 F (21.7 C)
Relative Humidity: 49%
Pressure (altimeter): 30.07 in. Hg (1018 hPa)
ob: KGLE 281835Z AUTO 17008KT 10SM SCT048 SCT055 34/22 A3007 RMK AO2 T03390217 PWINO
cycle: 18

Station Type Date Time Source
KGLE TAF UTC NOAA

Error!

Example: see airport list